createdAt,value
2024-01-12T00:00:59.979Z,49.40
2024-01-12T00:03:27.016Z,49.29
2024-01-12T00:05:54.231Z,49.63
2024-01-12T00:08:21.621Z,49.24
2024-01-12T00:10:48.768Z,49.59
2024-01-12T00:13:15.963Z,49.24
2024-01-12T00:15:45.554Z,49.25
2024-01-12T00:18:12.584Z,50.36
2024-01-12T00:20:39.704Z,49.60
2024-01-12T00:23:06.789Z,49.31
2024-01-12T00:25:33.832Z,49.36
2024-01-12T00:28:00.890Z,50.58
2024-01-12T00:30:28.259Z,52.73
2024-01-12T00:32:58.093Z,51.78
2024-01-12T00:35:25.664Z,51.83
2024-01-12T00:37:52.747Z,51.55
2024-01-12T00:40:19.749Z,53.80
2024-01-12T00:42:46.700Z,54.37
2024-01-12T00:45:13.865Z,54.13
2024-01-12T00:47:40.960Z,54.45
2024-01-12T00:50:11.448Z,54.08
2024-01-12T00:52:38.471Z,54.25
2024-01-12T00:55:06.347Z,54.78
2024-01-12T00:57:33.393Z,54.89
2024-01-12T01:00:00.557Z,54.31
2024-01-12T01:02:27.714Z,54.11
2024-01-12T01:04:54.851Z,53.73
2024-01-12T01:07:24.657Z,53.31
2024-01-12T01:09:51.822Z,54.48
2024-01-12T01:12:19.793Z,54.65
2024-01-12T01:14:46.979Z,53.35
2024-01-12T01:17:14.243Z,54.14
2024-01-12T01:19:41.434Z,53.82
2024-01-12T01:22:08.413Z,53.89
2024-01-12T01:24:38.015Z,55.00
2024-01-12T01:27:06.707Z,53.94
2024-01-12T01:29:33.846Z,52.96
2024-01-12T01:32:01.015Z,54.30
2024-01-12T01:34:28.211Z,53.80
2024-01-12T01:36:55.337Z,55.02
2024-01-12T01:39:22.385Z,55.42
2024-01-12T01:41:52.000Z,54.67
2024-01-12T01:44:19.090Z,54.24
2024-01-12T01:46:46.249Z,54.10
2024-01-12T01:49:13.560Z,54.54
2024-01-12T01:51:40.954Z,53.70
2024-01-12T01:54:08.546Z,54.44
2024-01-12T01:56:39.768Z,54.36
2024-01-12T01:59:09.596Z,55.52
2024-01-12T02:01:37.071Z,56.59
2024-01-12T02:04:04.547Z,55.10
2024-01-12T02:06:33.250Z,56.62
2024-01-12T02:09:01.595Z,57.02
2024-01-12T02:11:28.756Z,55.96
2024-01-12T02:13:55.823Z,56.13
2024-01-12T02:16:25.957Z,56.17
2024-01-12T02:18:53.087Z,56.69
2024-01-12T02:21:23.024Z,55.34
2024-01-12T02:23:50.105Z,56.34
2024-01-12T02:26:17.451Z,56.00
2024-01-12T02:28:44.828Z,57.26
2024-01-12T02:31:11.994Z,56.61
2024-01-12T02:33:39.094Z,56.61
2024-01-12T02:36:06.777Z,55.91
2024-01-12T02:38:36.601Z,57.42
2024-01-12T02:41:03.638Z,56.30
2024-01-12T02:43:30.701Z,56.49
2024-01-12T02:45:57.727Z,57.05
2024-01-12T02:48:24.939Z,55.98
2024-01-12T02:50:52.230Z,56.39
2024-01-12T02:53:19.880Z,57.40
2024-01-12T02:55:49.643Z,56.96
2024-01-12T02:58:16.673Z,56.24
2024-01-12T03:00:44.459Z,57.72
2024-01-12T03:03:11.577Z,57.29
2024-01-12T03:05:38.700Z,57.28
2024-01-12T03:08:06.269Z,57.30
2024-01-12T03:10:33.357Z,56.22
2024-01-12T03:13:03.003Z,59.14
2024-01-12T03:15:30.219Z,59.68
2024-01-12T03:17:57.764Z,61.61
2024-01-12T03:20:24.879Z,59.54
2024-01-12T03:22:53.096Z,59.85
2024-01-12T03:25:20.138Z,57.78
2024-01-12T03:27:47.160Z,57.63
2024-01-12T03:30:17.426Z,56.41
2024-01-12T03:32:44.693Z,56.57
2024-01-12T03:35:11.872Z,56.22
2024-01-12T03:37:38.962Z,54.86
2024-01-12T03:40:07.329Z,55.78
2024-01-12T03:42:34.371Z,56.07
2024-01-12T03:45:01.505Z,54.99
2024-01-12T03:47:31.342Z,54.41
2024-01-12T03:49:58.769Z,53.37
2024-01-12T03:52:25.929Z,53.23
2024-01-12T03:54:52.962Z,53.24
2024-01-12T03:57:20.168Z,53.13
2024-01-12T03:59:47.199Z,52.12
2024-01-12T04:02:15.153Z,51.56
2024-01-12T04:04:44.921Z,52.93
2024-01-12T04:07:12.114Z,50.93
2024-01-12T04:09:39.199Z,50.98
2024-01-12T04:12:07.379Z,49.31
2024-01-12T04:14:36.588Z,48.39
2024-01-12T04:17:04.392Z,49.99
2024-01-12T04:19:31.392Z,49.00
2024-01-12T04:22:01.013Z,50.51
2024-01-12T04:24:28.189Z,50.86
2024-01-12T04:26:55.490Z,51.20
2024-01-12T04:29:22.637Z,52.35
2024-01-12T04:31:49.775Z,51.72
2024-01-12T04:34:17.097Z,51.71
2024-01-12T04:36:44.220Z,54.16
2024-01-12T04:39:13.955Z,54.03
2024-01-12T04:41:41.004Z,53.30
2024-01-12T04:44:08.034Z,53.19
2024-01-12T04:46:35.036Z,53.71
2024-01-12T04:49:02.252Z,54.32
2024-01-12T04:51:29.832Z,54.42
2024-01-12T04:53:56.938Z,54.88
2024-01-12T04:56:26.605Z,54.82
2024-01-12T04:58:53.682Z,54.09
2024-01-12T05:01:20.776Z,53.72
2024-01-12T05:03:47.823Z,53.28
2024-01-12T05:06:14.976Z,53.97
2024-01-12T05:08:42.101Z,53.03
2024-01-12T05:11:09.212Z,53.74
2024-01-12T05:13:38.847Z,53.57
2024-01-12T05:16:06.159Z,52.53
2024-01-12T05:18:33.576Z,52.65
2024-01-12T05:21:00.868Z,55.42
2024-01-12T05:23:27.969Z,56.08
2024-01-12T05:25:56.647Z,55.50
2024-01-12T05:28:23.707Z,53.91
2024-01-12T05:30:53.460Z,56.14
2024-01-12T05:33:20.565Z,57.12
2024-01-12T05:35:47.652Z,56.33
2024-01-12T05:38:14.785Z,56.79
2024-01-12T05:40:41.890Z,57.15
2024-01-12T05:43:08.967Z,56.28
2024-01-12T05:45:35.996Z,56.98
2024-01-12T05:48:06.751Z,56.56
2024-01-12T05:50:33.953Z,57.18
2024-01-12T05:53:01.001Z,57.40
2024-01-12T05:55:28.042Z,57.53
2024-01-12T05:57:55.095Z,58.29
2024-01-12T06:00:22.147Z,55.36
2024-01-12T06:02:49.245Z,55.31
2024-01-12T06:05:19.128Z,55.56
2024-01-12T06:07:46.175Z,54.06
2024-01-12T06:10:13.167Z,51.96
2024-01-12T06:12:40.203Z,52.63
2024-01-12T06:15:08.144Z,52.08
2024-01-12T06:17:35.283Z,50.90
2024-01-12T06:20:02.393Z,48.51
2024-01-12T06:22:32.020Z,48.27
2024-01-12T06:24:59.083Z,49.00
2024-01-12T06:27:26.083Z,48.35
2024-01-12T06:29:53.115Z,48.62
2024-01-12T06:32:20.196Z,48.49
2024-01-12T06:34:47.326Z,48.33
2024-01-12T06:37:14.416Z,48.64
2024-01-12T06:39:44.094Z,48.17
2024-01-12T06:42:11.175Z,48.90
2024-01-12T06:44:40.687Z,48.86
2024-01-12T06:47:07.765Z,48.95
2024-01-12T06:49:34.791Z,51.41
2024-01-12T06:52:01.891Z,50.72
2024-01-12T06:54:28.966Z,51.26
2024-01-12T06:56:58.644Z,51.13
2024-01-12T06:59:25.755Z,52.46
2024-01-12T07:01:52.932Z,54.09
2024-01-12T07:04:20.018Z,53.37
2024-01-12T07:06:47.276Z,52.95
2024-01-12T07:09:14.522Z,52.96
2024-01-12T07:11:42.554Z,53.79
2024-01-12T07:14:13.438Z,54.01
2024-01-12T07:16:40.565Z,55.20
2024-01-12T07:19:08.453Z,55.16
2024-01-12T07:21:35.680Z,55.97
2024-01-12T07:24:04.206Z,55.30
2024-01-12T07:26:31.362Z,57.18
2024-01-12T07:28:59.404Z,57.98
2024-01-12T07:31:29.185Z,58.02
2024-01-12T07:33:56.347Z,57.45
2024-01-12T07:36:23.528Z,57.32
2024-01-12T07:38:50.659Z,58.13
2024-01-12T07:41:17.882Z,58.27
2024-01-12T07:43:45.107Z,59.01
2024-01-12T07:46:17.944Z,59.08
2024-01-12T07:48:47.745Z,60.46
2024-01-12T07:51:15.024Z,60.29
2024-01-12T07:53:42.299Z,61.34
2024-01-12T07:56:10.823Z,60.84
2024-01-12T07:58:37.921Z,60.99
2024-01-12T08:01:05.379Z,61.58
2024-01-12T08:03:32.800Z,62.49
2024-01-12T08:06:02.738Z,64.53
2024-01-12T08:08:29.944Z,64.56
2024-01-12T08:10:57.082Z,64.23
2024-01-12T08:13:24.421Z,64.74
2024-01-12T08:15:51.727Z,64.46
2024-01-12T08:18:19.016Z,65.23
2024-01-12T08:20:46.764Z,64.03
2024-01-12T08:23:16.474Z,65.18
2024-01-12T08:25:43.684Z,63.34
2024-01-12T08:28:10.798Z,65.48
2024-01-12T08:30:37.886Z,65.72
2024-01-12T08:33:05.574Z,65.49
2024-01-12T08:35:32.757Z,66.40
2024-01-12T08:37:59.917Z,64.94
2024-01-12T08:40:29.694Z,64.29
2024-01-12T08:42:56.852Z,63.57
2024-01-12T08:45:24.095Z,65.90
2024-01-12T08:47:51.461Z,62.39
2024-01-12T08:50:18.735Z,59.79
2024-01-12T08:52:45.909Z,58.94
2024-01-12T08:55:12.991Z,57.92
2024-01-12T08:57:42.730Z,55.53
2024-01-12T09:00:11.550Z,55.87
2024-01-12T09:02:38.788Z,55.44
2024-01-12T09:05:06.885Z,54.49
2024-01-12T09:07:34.016Z,52.84
2024-01-12T09:10:01.149Z,53.18
2024-01-12T09:12:28.235Z,51.57
2024-01-12T09:14:57.918Z,50.95
2024-01-12T09:17:25.144Z,50.66
2024-01-12T09:19:52.517Z,51.22
2024-01-12T09:22:19.733Z,50.95
2024-01-12T09:24:46.915Z,50.46
2024-01-12T09:27:14.128Z,50.63
2024-01-12T09:29:41.231Z,49.38
2024-01-12T09:32:11.097Z,46.90
2024-01-12T09:34:38.309Z,47.80
2024-01-12T09:37:05.624Z,49.95
2024-01-12T09:39:32.997Z,48.41
2024-01-12T09:42:01.927Z,46.64
2024-01-12T09:44:30.482Z,45.73
2024-01-12T09:46:59.379Z,44.84
2024-01-12T09:49:31.120Z,45.38
2024-01-12T09:51:59.865Z,44.46
2024-01-12T09:54:26.975Z,43.63
2024-01-12T09:56:54.631Z,43.34
2024-01-12T09:59:23.918Z,42.91
2024-01-12T10:01:51.251Z,45.00
2024-01-12T10:04:18.386Z,46.25
2024-01-12T10:06:48.229Z,44.77
2024-01-12T10:09:15.717Z,44.73
2024-01-12T10:11:42.904Z,45.66
2024-01-12T10:14:10.125Z,45.04
2024-01-12T10:16:37.327Z,44.49
2024-01-12T10:19:04.491Z,44.37
2024-01-12T10:21:39.204Z,44.59
2024-01-12T10:24:09.307Z,45.01
2024-01-12T10:26:36.590Z,44.88
2024-01-12T10:29:04.511Z,45.48
2024-01-12T10:31:31.870Z,45.17
2024-01-12T10:34:01.152Z,44.03
2024-01-12T10:36:29.319Z,43.68
2024-01-12T10:38:58.296Z,42.50
2024-01-12T10:41:29.938Z,42.18
2024-01-12T10:43:57.037Z,42.68
2024-01-12T10:46:34.385Z,41.66
2024-01-12T10:49:10.250Z,40.40
2024-01-12T10:51:40.243Z,38.68
2024-01-12T10:54:14.289Z,39.24
2024-01-12T10:56:46.198Z,39.63
2024-01-12T10:59:13.565Z,38.92
2024-01-12T11:01:42.258Z,39.26
2024-01-12T11:04:10.460Z,38.23
2024-01-12T11:06:39.645Z,37.81
2024-01-12T11:09:10.936Z,37.85
2024-01-12T11:11:50.757Z,38.18
2024-01-12T11:14:19.052Z,37.72
2024-01-12T11:16:46.290Z,38.52
2024-01-12T11:19:14.464Z,37.64
2024-01-12T11:21:42.223Z,38.62
2024-01-12T11:24:11.092Z,38.43
2024-01-12T11:26:38.677Z,39.19
2024-01-12T11:29:13.391Z,38.80
2024-01-12T11:31:49.694Z,38.67
2024-01-12T11:34:18.706Z,37.92
2024-01-12T11:36:46.081Z,38.38
2024-01-12T11:39:13.786Z,37.73
2024-01-12T11:41:45.363Z,38.47
2024-01-12T11:44:15.245Z,38.95
2024-01-12T11:46:42.740Z,38.68
2024-01-12T11:49:10.029Z,38.84
2024-01-12T11:51:37.097Z,38.46
2024-01-12T11:54:04.411Z,37.69
2024-01-12T11:56:31.515Z,36.30
2024-01-12T11:58:58.655Z,35.16
2024-01-12T12:01:28.444Z,34.86
2024-01-12T12:03:55.837Z,32.79
2024-01-12T12:06:23.136Z,31.82
2024-01-12T12:08:50.502Z,31.64
2024-01-12T12:11:17.533Z,30.77
2024-01-12T12:13:44.519Z,31.13
2024-01-12T12:16:11.601Z,30.42
2024-01-12T12:18:41.579Z,28.64
2024-01-12T12:21:09.939Z,27.29
2024-01-12T12:23:37.293Z,27.19
2024-01-12T12:26:05.338Z,25.23
2024-01-12T12:28:33.137Z,24.80
2024-01-12T12:31:00.236Z,27.01
2024-01-12T12:33:27.485Z,25.09
2024-01-12T12:36:10.391Z,24.91
2024-01-12T12:38:38.128Z,22.60
2024-01-12T12:41:07.496Z,20.18
2024-01-12T12:43:35.488Z,20.88
2024-01-12T12:46:02.648Z,22.75
2024-01-12T12:48:29.882Z,22.26
2024-01-12T12:50:57.088Z,21.64
2024-01-12T12:53:26.799Z,23.23
2024-01-12T12:55:54.066Z,20.91
2024-01-12T12:58:21.103Z,19.80
2024-01-12T13:00:48.347Z,17.65
2024-01-12T13:03:15.466Z,16.78
2024-01-12T13:05:42.539Z,15.47
2024-01-12T13:08:09.660Z,15.29
2024-01-12T13:10:39.360Z,14.98
2024-01-12T13:13:06.576Z,14.81
2024-01-12T13:15:33.843Z,15.61
2024-01-12T13:18:01.091Z,16.59
2024-01-12T13:20:28.264Z,17.91
2024-01-12T13:22:55.419Z,19.85
2024-01-12T13:25:22.475Z,19.35
2024-01-12T13:27:52.270Z,18.92
2024-01-12T13:30:19.694Z,18.99
2024-01-12T13:32:47.155Z,18.98
2024-01-12T13:35:14.476Z,18.74
2024-01-12T13:37:41.544Z,20.12
2024-01-12T13:40:09.764Z,19.08
2024-01-12T13:42:36.862Z,19.41
2024-01-12T13:45:07.263Z,18.82
2024-01-12T13:47:34.815Z,18.04
2024-01-12T13:50:02.064Z,18.25
2024-01-12T13:52:29.310Z,17.33
2024-01-12T13:54:56.334Z,17.40
2024-01-12T13:57:23.381Z,18.20
2024-01-12T13:59:50.532Z,18.42
2024-01-12T14:02:20.428Z,18.37
2024-01-12T14:04:56.553Z,18.85
2024-01-12T14:07:28.630Z,18.69
2024-01-12T14:09:55.919Z,18.36
2024-01-12T14:12:23.071Z,18.79
2024-01-12T14:14:50.493Z,18.33
2024-01-12T14:17:20.234Z,18.43
2024-01-12T14:19:47.522Z,18.75
2024-01-12T14:22:15.214Z,18.72
2024-01-12T14:24:42.309Z,19.12
2024-01-12T14:27:09.918Z,18.58
2024-01-12T14:29:37.558Z,18.35
2024-01-12T14:32:05.268Z,17.71
2024-01-12T14:34:34.983Z,17.08
2024-01-12T14:37:02.190Z,17.32
2024-01-12T14:39:29.373Z,17.27
2024-01-12T14:41:56.528Z,17.61
2024-01-12T14:44:23.729Z,17.76
2024-01-12T14:46:50.960Z,18.13
2024-01-12T14:49:18.182Z,18.02
2024-01-12T14:51:47.958Z,17.52
2024-01-12T14:54:15.608Z,18.34
2024-01-12T14:56:43.957Z,19.78
2024-01-12T14:59:11.177Z,19.40
2024-01-12T15:01:38.307Z,18.62
2024-01-12T15:04:14.723Z,19.32
2024-01-12T15:06:48.680Z,19.72
2024-01-12T15:09:19.604Z,19.36
2024-01-12T15:11:47.047Z,19.81
2024-01-12T15:14:15.155Z,19.29
2024-01-12T15:16:43.341Z,20.09
2024-01-12T15:19:10.790Z,20.26
2024-01-12T15:21:38.305Z,20.52
2024-01-12T15:24:08.157Z,19.49
2024-01-12T15:26:35.469Z,20.23
2024-01-12T15:29:02.654Z,20.54
2024-01-12T15:31:30.226Z,19.82
2024-01-12T15:33:57.805Z,20.27
2024-01-12T15:36:25.068Z,19.91
2024-01-12T15:38:52.136Z,20.14
2024-01-12T15:41:21.843Z,20.67
2024-01-12T15:43:48.873Z,21.35
2024-01-12T15:46:16.364Z,21.18
2024-01-12T15:48:43.779Z,21.82
2024-01-12T15:51:14.106Z,20.04
2024-01-12T15:53:41.313Z,20.16
2024-01-12T15:56:08.694Z,20.06
2024-01-12T15:58:38.938Z,19.64
2024-01-12T16:01:06.012Z,19.44
2024-01-12T16:03:33.176Z,19.95
2024-01-12T16:06:00.398Z,20.33
2024-01-12T16:08:27.545Z,19.35
2024-01-12T16:10:54.626Z,20.53
2024-01-12T16:13:21.661Z,21.67
2024-01-12T16:15:51.836Z,21.28
2024-01-12T16:18:19.195Z,21.33
2024-01-12T16:20:47.954Z,21.27
2024-01-12T16:23:15.176Z,23.00
2024-01-12T16:25:42.160Z,21.99
2024-01-12T16:28:09.204Z,22.62
2024-01-12T16:30:36.342Z,22.67
2024-01-12T16:33:06.448Z,23.51
2024-01-12T16:35:33.636Z,23.64
2024-01-12T16:38:00.868Z,23.53
2024-01-12T16:40:27.908Z,23.72
2024-01-12T16:42:54.932Z,22.58
2024-01-12T16:45:21.917Z,22.92
2024-01-12T16:47:49.354Z,23.46
2024-01-12T16:50:19.624Z,24.10
2024-01-12T16:52:46.780Z,23.66
2024-01-12T16:55:13.878Z,24.70
2024-01-12T16:57:41.086Z,25.19
2024-01-12T17:00:09.404Z,25.80
2024-01-12T17:02:36.585Z,26.03
2024-01-12T17:05:04.182Z,25.56
2024-01-12T17:07:33.802Z,25.49
2024-01-12T17:10:00.781Z,26.46
2024-01-12T17:12:27.826Z,27.21
2024-01-12T17:14:54.989Z,26.65
2024-01-12T17:17:26.559Z,26.19
2024-01-12T17:19:57.781Z,26.76
2024-01-12T17:22:24.991Z,26.37
2024-01-12T17:24:54.582Z,27.53
2024-01-12T17:27:21.579Z,27.46
2024-01-12T17:29:48.692Z,27.37
2024-01-12T17:32:16.623Z,28.83
2024-01-12T17:34:43.871Z,28.09
2024-01-12T17:37:11.151Z,28.98
2024-01-12T17:39:38.248Z,27.81
2024-01-12T17:42:08.168Z,29.51
2024-01-12T17:44:35.291Z,29.40
2024-01-12T17:47:02.359Z,29.25
2024-01-12T17:49:29.476Z,28.78
2024-01-12T17:51:56.715Z,27.53
2024-01-12T17:54:23.798Z,27.76
2024-01-12T17:56:50.872Z,27.87
2024-01-12T17:59:20.614Z,27.41
2024-01-12T18:01:47.748Z,27.99
2024-01-12T18:04:14.898Z,29.22
2024-01-12T18:06:42.192Z,29.37
2024-01-12T18:09:09.521Z,28.57
2024-01-12T18:11:36.695Z,28.36
2024-01-12T18:14:03.733Z,27.50
2024-01-12T18:16:33.374Z,26.36
2024-01-12T18:19:00.718Z,28.02
2024-01-12T18:21:27.954Z,28.94
2024-01-12T18:23:55.023Z,29.18
2024-01-12T18:26:22.061Z,28.95
2024-01-12T18:28:49.133Z,29.45
2024-01-12T18:31:16.208Z,30.59
2024-01-12T18:33:45.994Z,31.63
2024-01-12T18:36:13.329Z,32.31
2024-01-12T18:38:40.417Z,32.76
2024-01-12T18:41:07.724Z,32.81
2024-01-12T18:43:34.780Z,33.46
2024-01-12T18:46:01.792Z,33.02
2024-01-12T18:48:28.949Z,33.76
2024-01-12T18:50:58.829Z,33.57
2024-01-12T18:53:25.901Z,33.90
2024-01-12T18:55:52.984Z,32.14
2024-01-12T18:58:20.108Z,31.66
2024-01-12T19:00:47.395Z,31.42
2024-01-12T19:03:14.544Z,32.51
2024-01-12T19:05:41.882Z,31.40
2024-01-12T19:08:11.815Z,32.78
2024-01-12T19:10:39.320Z,33.12
2024-01-12T19:13:06.766Z,33.04
2024-01-12T19:15:33.748Z,32.69
2024-01-12T19:18:01.093Z,31.77
2024-01-12T19:20:28.224Z,33.55
2024-01-12T19:22:55.234Z,34.13
2024-01-12T19:25:24.856Z,33.46
2024-01-12T19:27:51.943Z,33.14
2024-01-12T19:30:19.122Z,32.38
2024-01-12T19:32:46.339Z,31.89
2024-01-12T19:35:13.548Z,33.27
2024-01-12T19:37:40.593Z,32.46
2024-01-12T19:40:08.832Z,33.01
2024-01-12T19:42:38.417Z,33.15
2024-01-12T19:45:06.652Z,34.26
2024-01-12T19:47:33.810Z,32.82
2024-01-12T19:50:01.123Z,32.77
2024-01-12T19:52:28.242Z,32.22
2024-01-12T19:54:55.239Z,31.46
2024-01-12T19:57:22.273Z,31.14
2024-01-12T19:59:51.999Z,30.70
2024-01-12T20:02:19.240Z,32.59
2024-01-12T20:04:48.203Z,32.30
2024-01-12T20:07:16.249Z,32.27
2024-01-12T20:09:43.354Z,32.91
2024-01-12T20:12:10.493Z,32.10
2024-01-12T20:14:37.541Z,32.22
2024-01-12T20:17:07.222Z,33.03
2024-01-12T20:19:34.706Z,32.66
2024-01-12T20:22:02.072Z,32.31
2024-01-12T20:24:29.208Z,32.37
2024-01-12T20:26:56.285Z,32.71
2024-01-12T20:29:23.354Z,34.37
2024-01-12T20:31:50.405Z,34.63
2024-01-12T20:34:20.267Z,34.12
2024-01-12T20:36:47.375Z,35.55
2024-01-12T20:39:14.411Z,35.64
2024-01-12T20:41:41.489Z,37.39
2024-01-12T20:44:08.611Z,36.53
2024-01-12T20:46:35.635Z,36.22
2024-01-12T20:49:02.916Z,36.63
2024-01-12T20:51:32.615Z,37.97
2024-01-12T20:53:59.909Z,37.72
2024-01-12T20:56:27.199Z,36.17
2024-01-12T20:58:55.594Z,36.48
2024-01-12T21:01:23.020Z,36.38
2024-01-12T21:03:50.175Z,35.64
2024-01-12T21:06:17.569Z,36.24
2024-01-12T21:08:47.454Z,36.86
2024-01-12T21:11:14.798Z,37.29
2024-01-12T21:13:41.810Z,36.65
2024-01-12T21:16:10.169Z,37.05
2024-01-12T21:18:37.531Z,36.57
2024-01-12T21:21:06.923Z,35.20
2024-01-12T21:23:34.213Z,35.45
2024-01-12T21:26:06.016Z,35.64
2024-01-12T21:28:33.106Z,33.68
2024-01-12T21:31:00.367Z,32.90
2024-01-12T21:33:27.594Z,32.12
2024-01-12T21:35:54.948Z,31.59
2024-01-12T21:38:22.246Z,31.34
2024-01-12T21:40:49.274Z,31.48
2024-01-12T21:43:19.004Z,30.23
2024-01-12T21:45:46.153Z,30.14
2024-01-12T21:48:13.371Z,30.10
2024-01-12T21:50:41.338Z,30.01
2024-01-12T21:53:09.011Z,29.36
2024-01-12T21:55:36.041Z,29.09
2024-01-12T21:58:03.050Z,30.33
2024-01-12T22:00:32.923Z,29.35
2024-01-12T22:03:00.203Z,28.70
2024-01-12T22:05:27.548Z,28.21
2024-01-12T22:07:54.643Z,29.69
2024-01-12T22:10:21.673Z,28.39
2024-01-12T22:12:48.725Z,27.12
2024-01-12T22:15:15.989Z,26.34
2024-01-12T22:17:45.784Z,25.70
2024-01-12T22:20:13.354Z,25.00
2024-01-12T22:22:40.896Z,25.64
2024-01-12T22:25:08.825Z,24.62
2024-01-12T22:27:35.871Z,25.73
2024-01-12T22:30:03.055Z,26.28
2024-01-12T22:32:30.150Z,26.72
2024-01-12T22:34:59.878Z,27.03
2024-01-12T22:37:26.956Z,26.62
2024-01-12T22:39:53.995Z,28.29
2024-01-12T22:42:21.053Z,28.81
2024-01-12T22:44:48.143Z,29.00
2024-01-12T22:47:15.319Z,29.94
2024-01-12T22:49:42.722Z,30.58
2024-01-12T22:52:12.515Z,31.23
2024-01-12T22:54:42.604Z,30.74
2024-01-12T22:57:09.872Z,29.93
2024-01-12T22:59:37.102Z,31.78
2024-01-12T23:02:04.559Z,31.51
2024-01-12T23:04:32.821Z,32.48
2024-01-12T23:06:59.890Z,31.20
2024-01-12T23:09:29.666Z,31.59
2024-01-12T23:11:56.725Z,31.04
2024-01-12T23:14:23.846Z,30.52
2024-01-12T23:16:51.161Z,30.31
2024-01-12T23:19:18.486Z,30.44
2024-01-12T23:21:45.682Z,30.13
2024-01-12T23:24:12.869Z,31.16
2024-01-12T23:26:42.613Z,31.12
2024-01-12T23:29:13.649Z,30.92
2024-01-12T23:31:40.880Z,31.74
2024-01-12T23:34:08.202Z,30.98
2024-01-12T23:36:35.428Z,34.20
2024-01-12T23:39:02.590Z,34.59
2024-01-12T23:41:29.765Z,32.79
2024-01-12T23:43:59.446Z,30.62
2024-01-12T23:46:26.687Z,30.68
2024-01-12T23:48:53.977Z,30.55
2024-01-12T23:51:21.236Z,30.74
2024-01-12T23:53:48.355Z,30.67
2024-01-12T23:56:15.537Z,30.08
2024-01-12T23:58:42.638Z,32.03
